Sahovskaja, Russia
Current Conditions -  °F | °C
As of 6:30 AM on Sunday 21 Dec 2014 (Local Time) from UUBW Reporting Station
Broken Clouds Broken Clouds  
Wind Chill: 29°   Ceiling: 10000
Heat Index: 36°   Visibility: 6mi
Dew Point: 30°   Wind: 9mph
Humidity: 81%   Direction: 230°SW
Pressure: 29.47"   Gusts: NA
Location:  56.03°N, 35.52°E
Report Text: UUBW 210330Z 23004MPS 9999 SCT016 BKN100 02/M01 Q0998 NOSIG
Loading
Personal Weather Stations






























Interactive Weather Map New forecast layout! Learn more

10-Day Weather Forecast

Advertisements
Track Severe Weather on mobile